Bookmark and Share
Track history (hours):
 

Ferry Kyoto2

Last reported at 2014-Apr-18 12:32 UTC. Time now 2014-Apr-19 09:36 UTC.
Position N 34°34' E 134°47'.

Length 167 m; draft 6 m.

Type: Passenger vessel. MMSI: 431301641.

NotesDate/timePositionNaut miles runAvg speedWind from/ knotsBaromVisibWave heightAir tempDewpointWater temp
2014-Apr-18 12:32N 34°34' E 134°47'2121.9
2014-Apr-18 11:33N 34°36' E 135°12'1110.7
2014-Apr-18 10:30N 34°37' E 135°26'0 0.0
2014-Apr-18 08:30N 34°37' E 135°26'0 0.0
2014-Apr-18 07:30N 34°37' E 135°26'0 0.0
2014-Apr-18 06:30N 34°37' E 135°26'0 0.0
2014-Apr-18 05:24N 34°37' E 135°26'0 0.0
2014-Apr-18 04:30N 34°37' E 135°26'0 0.0
2014-Apr-18 03:30N 34°37' E 135°26'0 0.0
2014-Apr-18 02:30N 34°37' E 135°26'0 0.0
2014-Apr-18 01:30N 34°37' E 135°26'0 0.0
2014-Apr-18 00:30N 34°37' E 135°26'0 0.0
2014-Apr-17 23:33N 34°37' E 135°26'9 9.1
2014-Apr-17 22:33N 34°35' E 135°15'1716.7
2014-Apr-17 21:33N 34°35' E 134°55'4 0.1
2014-Apr-16 12:33N 34°34' E 134°50'2221.6
2014-Apr-16 11:33N 34°36' E 135°17'8 5.7
2014-Apr-16 10:12N 34°37' E 135°26'0 0.0
2014-Apr-16 09:24N 34°37' E 135°26'0 0.0
2014-Apr-16 08:30N 34°37' E 135°26'0 0.0
2014-Apr-16 07:30N 34°37' E 135°26'0 0.0
2014-Apr-16 06:30N 34°37' E 135°26'0 0.0
2014-Apr-16 05:24N 34°37' E 135°26'0 0.0
2014-Apr-16 04:30N 34°37' E 135°26'0 0.0
2014-Apr-16 03:18N 34°37' E 135°26'0 0.0
2014-Apr-16 02:24N 34°37' E 135°26'0 0.0
2014-Apr-16 01:12N 34°37' E 135°26'0 0.0
2014-Apr-16 00:30N 34°37' E 135°26'0 0.0
2014-Apr-15 23:30N 34°37' E 135°26'1212.6
2014-Apr-15 22:33N 34°35' E 135°12'1818.2
2014-Apr-15 21:34N 34°33' E 134°50'1 0.0
2014-Apr-14 11:33N 34°34' E 134°48'2222.6
2014-Apr-14 10:34N 34°36' E 135°15'9 8.6
2014-Apr-14 09:31N 34°37' E 135°26'0 0.0
2014-Apr-14 07:31N 34°37' E 135°26'0 0.0
2014-Apr-14 06:31N 34°37' E 135°26'0 0.0
2014-Apr-14 05:31N 34°37' E 135°26'12 1.8
2014-Apr-13 22:33N 34°34' E 135°11'1717.2
2014-Apr-13 21:33N 34°34' E 134°51'4 0.1
2014-Apr-12 12:33N 34°34' E 134°45'2221.7
2014-Apr-12 11:33N 34°36' E 135°11'1210.0
2014-Apr-12 10:21N 34°37' E 135°26'0 0.0
2014-Apr-12 09:33N 34°37' E 135°26'0 0.0
2014-Apr-12 08:33N 34°37' E 135°26'0 0.0
2014-Apr-12 07:33N 34°37' E 135°26'0 0.0
2014-Apr-12 06:27N 34°37' E 135°26'0 0.0
2014-Apr-12 05:33N 34°37' E 135°26'0 0.0
2014-Apr-12 04:21N 34°37' E 135°26'0 0.0
2014-Apr-12 03:33N 34°37' E 135°26'0 0.0
2014-Apr-12 02:33N 34°37' E 135°26'0 0.0
2014-Apr-12 01:33N 34°37' E 135°26'0 0.0
2014-Apr-12 00:33N 34°37' E 135°26'0 0.0
2014-Apr-11 23:33N 34°37' E 135°26'1110.9
2014-Apr-11 22:33N 34°35' E 135°13'1717.3
2014-Apr-11 21:33N 34°34' E 134°52'4 0.1
2014-Apr-10 12:31N 34°34' E 134°47'2021.0
2014-Apr-10 11:33N 34°36' E 135°12'1211.5
2014-Apr-10 10:32N 34°37' E 135°26'0 0.0
2014-Apr-10 09:32N 34°37' E 135°26'0 0.0
2014-Apr-10 08:32N 34°37' E 135°26'0 0.0
2014-Apr-10 07:33N 34°37' E 135°26'0 0.0
2014-Apr-10 06:32N 34°37' E 135°26'0 0.0
2014-Apr-10 05:32N 34°37' E 135°26'0 0.0
2014-Apr-10 04:32N 34°37' E 135°26'0 0.0
2014-Apr-10 03:32N 34°37' E 135°26'0 0.0
2014-Apr-10 02:33N 34°37' E 135°26'0 0.0
2014-Apr-10 01:27N 34°37' E 135°26'0 0.0
2014-Apr-10 00:32N 34°37' E 135°26'0 0.0
2014-Apr-09 23:32N 34°37' E 135°26'10 9.9
2014-Apr-09 22:33N 34°35' E 135°14'1817.7
2014-Apr-09 21:33N 34°35' E 134°53'3 0.1
2014-Apr-08 12:34N 34°35' E 134°49'  

Dump ship's entire track history

sailing weather and tide predictions

Ferry Kyoto2 — JI3701 — position and weather